sensor_id;sensor_type;location;lat;lon;timestamp;temperature;humidity
32334;DHT22;18810;53.040;8.850;2023-01-28T00:00:30;4.40;99.90
32334;DHT22;18810;53.040;8.850;2023-01-28T00:02:55;3.50;99.90
32334;DHT22;18810;53.040;8.850;2023-01-28T00:05:21;4.40;99.90
32334;DHT22;18810;53.040;8.850;2023-01-28T00:07:51;3.10;99.90
32334;DHT22;18810;53.040;8.850;2023-01-28T00:10:17;3.40;99.90
32334;DHT22;18810;53.040;8.850;2023-01-28T00:12:43;2.60;99.90
32334;DHT22;18810;53.040;8.850;2023-01-28T00:15:09;3.00;99.90
32334;DHT22;18810;53.040;8.850;2023-01-28T00:17:36;3.20;99.90
32334;DHT22;18810;53.040;8.850;2023-01-28T00:20:05;3.70;99.90
32334;DHT22;18810;53.040;8.850;2023-01-28T00:22:32;3.00;99.90
32334;DHT22;18810;53.040;8.850;2023-01-28T00:24:58;2.90;99.90
32334;DHT22;18810;53.040;8.850;2023-01-28T00:27:24;3.30;99.90
32334;DHT22;18810;53.040;8.850;2023-01-28T00:29:49;3.30;99.90
32334;DHT22;18810;53.040;8.850;2023-01-28T00:32:15;4.90;99.90
32334;DHT22;18810;53.040;8.850;2023-01-28T00:34:41;4.70;99.90
32334;DHT22;18810;53.040;8.850;2023-01-28T00:37:07;2.90;99.90
32334;DHT22;18810;53.040;8.850;2023-01-28T00:39:32;2.90;99.90
32334;DHT22;18810;53.040;8.850;2023-01-28T00:41:58;3.00;99.90
32334;DHT22;18810;53.040;8.850;2023-01-28T00:44:23;2.80;99.90
32334;DHT22;18810;53.040;8.850;2023-01-28T00:46:49;2.80;99.90
32334;DHT22;18810;53.040;8.850;2023-01-28T00:49:15;2.80;99.90
32334;DHT22;18810;53.040;8.850;2023-01-28T00:51:41;4.20;99.90
32334;DHT22;18810;53.040;8.850;2023-01-28T00:54:06;4.20;99.90
32334;DHT22;18810;53.040;8.850;2023-01-28T00:56:32;4.10;99.90
32334;DHT22;18810;53.040;8.850;2023-01-28T01:01:26;2.80;99.90
32334;DHT22;18810;53.040;8.850;2023-01-28T01:03:52;4.90;99.90
32334;DHT22;18810;53.040;8.850;2023-01-28T01:06:30;3.40;99.90
32334;DHT22;18810;53.040;8.850;2023-01-28T01:08:56;2.80;99.90
32334;DHT22;18810;53.040;8.850;2023-01-28T01:11:22;4.10;99.90
32334;DHT22;18810;53.040;8.850;2023-01-28T01:13:51;4.20;99.90
32334;DHT22;18810;53.040;8.850;2023-01-28T01:16:16;4.00;99.90
32334;DHT22;18810;53.040;8.850;2023-01-28T01:18:42;2.80;99.90
32334;DHT22;18810;53.040;8.850;2023-01-28T01:21:09;3.70;99.90
32334;DHT22;18810;53.040;8.850;2023-01-28T01:23:35;2.80;99.90
32334;DHT22;18810;53.040;8.850;2023-01-28T01:26:03;2.70;99.90
32334;DHT22;18810;53.040;8.850;2023-01-28T01:31:00;2.80;99.90
32334;DHT22;18810;53.040;8.850;2023-01-28T01:33:28;3.00;99.90
32334;DHT22;18810;53.040;8.850;2023-01-28T01:35:54;2.90;99.90
32334;DHT22;18810;53.040;8.850;2023-01-28T01:38:20;2.80;99.90
32334;DHT22;18810;53.040;8.850;2023-01-28T01:40:46;2.90;99.90
32334;DHT22;18810;53.040;8.850;2023-01-28T01:43:25;2.90;99.90
32334;DHT22;18810;53.040;8.850;2023-01-28T01:45:59;2.80;99.90
32334;DHT22;18810;53.040;8.850;2023-01-28T01:48:31;3.20;99.90
32334;DHT22;18810;53.040;8.850;2023-01-28T01:51:07;3.10;99.90
32334;DHT22;18810;53.040;8.850;2023-01-28T01:53:36;2.80;99.90
32334;DHT22;18810;53.040;8.850;2023-01-28T01:56:05;2.80;99.90
32334;DHT22;18810;53.040;8.850;2023-01-28T01:58:35;2.80;99.90
32334;DHT22;18810;53.040;8.850;2023-01-28T02:01:02;2.80;99.90
32334;DHT22;18810;53.040;8.850;2023-01-28T02:03:46;2.70;99.90
32334;DHT22;18810;53.040;8.850;2023-01-28T02:06:13;2.80;99.90
32334;DHT22;18810;53.040;8.850;2023-01-28T02:08:39;4.20;99.90
32334;DHT22;18810;53.040;8.850;2023-01-28T02:11:06;4.80;99.90
32334;DHT22;18810;53.040;8.850;2023-01-28T02:13:40;3.00;99.90
32334;DHT22;18810;53.040;8.850;2023-01-28T02:16:07;2.80;99.90
32334;DHT22;18810;53.040;8.850;2023-01-28T02:18:34;3.60;99.90
32334;DHT22;18810;53.040;8.850;2023-01-28T02:26:21;2.80;99.90
32334;DHT22;18810;53.040;8.850;2023-01-28T02:34:42;3.40;99.90
32334;DHT22;18810;53.040;8.850;2023-01-28T02:37:18;2.80;99.90
32334;DHT22;18810;53.040;8.850;2023-01-28T02:39:51;3.10;99.90
32334;DHT22;18810;53.040;8.850;2023-01-28T02:42:24;4.10;99.90
32334;DHT22;18810;53.040;8.850;2023-01-28T02:44:51;4.20;99.90
32334;DHT22;18810;53.040;8.850;2023-01-28T02:47:17;3.10;99.90
32334;DHT22;18810;53.040;8.850;2023-01-28T02:50:03;4.00;99.90
32334;DHT22;18810;53.040;8.850;2023-01-28T02:53:12;2.80;99.90
32334;DHT22;18810;53.040;8.850;2023-01-28T02:58:41;2.50;99.90
32334;DHT22;18810;53.040;8.850;2023-01-28T03:04:00;2.40;99.90
32334;DHT22;18810;53.040;8.850;2023-01-28T03:06:34;2.40;99.90
32334;DHT22;18810;53.040;8.850;2023-01-28T03:09:05;2.80;99.90
32334;DHT22;18810;53.040;8.850;2023-01-28T03:15:16;2.80;99.90
32334;DHT22;18810;53.040;8.850;2023-01-28T03:18:24;2.50;99.90
32334;DHT22;18810;53.040;8.850;2023-01-28T03:21:31;2.60;99.90
32334;DHT22;18810;53.040;8.850;2023-01-28T03:24:27;2.50;99.90
32334;DHT22;18810;53.040;8.850;2023-01-28T03:27:25;2.60;99.90
32334;DHT22;18810;53.040;8.850;2023-01-28T03:30:14;2.50;99.90
32334;DHT22;18810;53.040;8.850;2023-01-28T03:33:00;2.60;99.90
32334;DHT22;18810;53.040;8.850;2023-01-28T03:35:46;2.40;99.90
32334;DHT22;18810;53.040;8.850;2023-01-28T03:38:31;2.80;99.90
32334;DHT22;18810;53.040;8.850;2023-01-28T03:41:08;2.20;99.90
32334;DHT22;18810;53.040;8.850;2023-01-28T03:43:34;3.50;99.90
32334;DHT22;18810;53.040;8.850;2023-01-28T03:46:01;2.00;99.90
32334;DHT22;18810;53.040;8.850;2023-01-28T03:48:27;2.20;99.90
32334;DHT22;18810;53.040;8.850;2023-01-28T03:50:56;1.70;99.90
32334;DHT22;18810;53.040;8.850;2023-01-28T03:53:25;3.10;99.90
32334;DHT22;18810;53.040;8.850;2023-01-28T03:55:52;2.10;99.90
32334;DHT22;18810;53.040;8.850;2023-01-28T03:58:18;2.90;99.90
32334;DHT22;18810;53.040;8.850;2023-01-28T04:00:45;3.60;99.90
32334;DHT22;18810;53.040;8.850;2023-01-28T04:03:13;2.30;99.90
32334;DHT22;18810;53.040;8.850;2023-01-28T04:08:08;3.10;99.90
32334;DHT22;18810;53.040;8.850;2023-01-28T04:17:52;2.10;99.90
32334;DHT22;18810;53.040;8.850;2023-01-28T04:27:35;2.00;99.90
32334;DHT22;18810;53.040;8.850;2023-01-28T04:34:53;2.00;99.90
32334;DHT22;18810;53.040;8.850;2023-01-28T04:37:18;3.50;99.90
32334;DHT22;18810;53.040;8.850;2023-01-28T04:39:44;4.30;99.90
32334;DHT22;18810;53.040;8.850;2023-01-28T04:49:28;2.00;99.90
32334;DHT22;18810;53.040;8.850;2023-01-28T04:59:11;1.70;99.90
32334;DHT22;18810;53.040;8.850;2023-01-28T05:06:31;2.10;99.90
32334;DHT22;18810;53.040;8.850;2023-01-28T05:11:23;1.80;99.90
32334;DHT22;18810;53.040;8.850;2023-01-28T05:13:49;3.40;99.90
32334;DHT22;18810;53.040;8.850;2023-01-28T05:21:08;1.70;99.90
32334;DHT22;18810;53.040;8.850;2023-01-28T05:23:33;2.90;99.90
32334;DHT22;18810;53.040;8.850;2023-01-28T05:28:25;1.40;99.90
32334;DHT22;18810;53.040;8.850;2023-01-28T05:35:43;1.40;99.90
32334;DHT22;18810;53.040;8.850;2023-01-28T05:40:34;1.20;99.90
32334;DHT22;18810;53.040;8.850;2023-01-28T05:43:00;3.10;99.90
32334;DHT22;18810;53.040;8.850;2023-01-28T05:45:26;1.10;99.90
32334;DHT22;18810;53.040;8.850;2023-01-28T05:47:51;1.00;99.90
32334;DHT22;18810;53.040;8.850;2023-01-28T05:55:09;1.10;99.90
32334;DHT22;18810;53.040;8.850;2023-01-28T05:57:35;1.20;99.90
32334;DHT22;18810;53.040;8.850;2023-01-28T06:00:01;2.50;99.90
32334;DHT22;18810;53.040;8.850;2023-01-28T06:02:29;1.70;99.90
32334;DHT22;18810;53.040;8.850;2023-01-28T06:04:55;1.20;99.90
32334;DHT22;18810;53.040;8.850;2023-01-28T06:07:21;3.10;99.90
32334;DHT22;18810;53.040;8.850;2023-01-28T06:09:48;2.30;99.90
32334;DHT22;18810;53.040;8.850;2023-01-28T06:12:14;1.00;99.90
32334;DHT22;18810;53.040;8.850;2023-01-28T06:14:40;2.10;99.90
32334;DHT22;18810;53.040;8.850;2023-01-28T06:17:06;1.10;99.90
32334;DHT22;18810;53.040;8.850;2023-01-28T06:31:42;0.80;99.90
32334;DHT22;18810;53.040;8.850;2023-01-28T06:34:09;2.20;99.90
32334;DHT22;18810;53.040;8.850;2023-01-28T06:36:35;0.90;99.90
32334;DHT22;18810;53.040;8.850;2023-01-28T06:39:03;3.30;99.90
32334;DHT22;18810;53.040;8.850;2023-01-28T06:41:29;0.80;99.90
32334;DHT22;18810;53.040;8.850;2023-01-28T06:43:55;3.50;99.90
32334;DHT22;18810;53.040;8.850;2023-01-28T06:48:46;0.70;99.90
32334;DHT22;18810;53.040;8.850;2023-01-28T06:51:12;0.50;99.90
32334;DHT22;18810;53.040;8.850;2023-01-28T06:56:04;0.40;99.90
32334;DHT22;18810;53.040;8.850;2023-01-28T06:58:30;0.40;99.90
32334;DHT22;18810;53.040;8.850;2023-01-28T07:00:55;2.80;99.90
32334;DHT22;18810;53.040;8.850;2023-01-28T07:03:21;0.80;99.90
32334;DHT22;18810;53.040;8.850;2023-01-28T07:05:46;0.20;99.90
32334;DHT22;18810;53.040;8.850;2023-01-28T07:10:38;0.20;99.90
32334;DHT22;18810;53.040;8.850;2023-01-28T07:13:04;0.20;99.90
32334;DHT22;18810;53.040;8.850;2023-01-28T07:17:56;0.20;99.90
32334;DHT22;18810;53.040;8.850;2023-01-28T07:20:21;0.20;99.90
32334;DHT22;18810;53.040;8.850;2023-01-28T07:22:47;0.10;99.90
32334;DHT22;18810;53.040;8.850;2023-01-28T07:25:13;3.80;99.90
32334;DHT22;18810;53.040;8.850;2023-01-28T07:27:44;0.10;99.90
32334;DHT22;18810;53.040;8.850;2023-01-28T07:30:10;0.10;99.90
32334;DHT22;18810;53.040;8.850;2023-01-28T07:32:36;0.10;99.90
32334;DHT22;18810;53.040;8.850;2023-01-28T07:44:45;0.00;99.90
32334;DHT22;18810;53.040;8.850;2023-01-28T07:47:11;2.90;99.90
32334;DHT22;18810;53.040;8.850;2023-01-28T07:49:39;0.00;99.90
32334;DHT22;18810;53.040;8.850;2023-01-28T07:52:06;2.20;99.90
32334;DHT22;18810;53.040;8.850;2023-01-28T07:54:31;3.80;99.90
32334;DHT22;18810;53.040;8.850;2023-01-28T08:06:41;0.60;99.90
32334;DHT22;18810;53.040;8.850;2023-01-28T08:11:36;1.10;99.90
32334;DHT22;18810;53.040;8.850;2023-01-28T08:16:28;0.80;99.90
32334;DHT22;18810;53.040;8.850;2023-01-28T08:21:19;1.10;99.90
32334;DHT22;18810;53.040;8.850;2023-01-28T08:26:11;1.40;99.90
32334;DHT22;18810;53.040;8.850;2023-01-28T08:33:29;2.00;99.90
32334;DHT22;18810;53.040;8.850;2023-01-28T08:38:20;2.50;99.90
32334;DHT22;18810;53.040;8.850;2023-01-28T08:40:47;3.20;99.90
32334;DHT22;18810;53.040;8.850;2023-01-28T08:43:15;3.10;99.90
32334;DHT22;18810;53.040;8.850;2023-01-28T08:45:41;2.50;99.90
32334;DHT22;18810;53.040;8.850;2023-01-28T08:48:07;3.80;99.90
32334;DHT22;18810;53.040;8.850;2023-01-28T08:50:37;2.50;99.90
32334;DHT22;18810;53.040;8.850;2023-01-28T08:53:11;2.30;99.90
32334;DHT22;18810;53.040;8.850;2023-01-28T08:55:37;2.60;99.90
32334;DHT22;18810;53.040;8.850;2023-01-28T08:58:08;2.40;99.90
32334;DHT22;18810;53.040;8.850;2023-01-28T09:00:34;2.90;99.90
32334;DHT22;18810;53.040;8.850;2023-01-28T09:10:18;1.90;99.90
32334;DHT22;18810;53.040;8.850;2023-01-28T09:15:13;1.80;99.90
32334;DHT22;18810;53.040;8.850;2023-01-28T09:17:39;1.90;99.90
32334;DHT22;18810;53.040;8.850;2023-01-28T09:20:06;2.40;99.90
32334;DHT22;18810;53.040;8.850;2023-01-28T09:22:32;2.40;99.90
32334;DHT22;18810;53.040;8.850;2023-01-28T09:24:58;2.70;99.90
32334;DHT22;18810;53.040;8.850;2023-01-28T09:45:18;4.80;99.90
32334;DHT22;18810;53.040;8.850;2023-01-28T09:47:55;5.90;99.90
32334;DHT22;18810;53.040;8.850;2023-01-28T09:52:55;5.00;99.90
32334;DHT22;18810;53.040;8.850;2023-01-28T09:55:31;4.90;99.90
32334;DHT22;18810;53.040;8.850;2023-01-28T10:00:40;4.80;99.90
32334;DHT22;18810;53.040;8.850;2023-01-28T10:17:38;4.20;99.90
32334;DHT22;18810;53.040;8.850;2023-01-28T10:22:41;3.70;99.90
32334;DHT22;18810;53.040;8.850;2023-01-28T10:25:20;3.80;99.90
32334;DHT22;18810;53.040;8.850;2023-01-28T10:27:47;4.00;99.90
32334;DHT22;18810;53.040;8.850;2023-01-28T10:30:26;4.00;99.90
32334;DHT22;18810;53.040;8.850;2023-01-28T10:32:55;4.00;99.90
32334;DHT22;18810;53.040;8.850;2023-01-28T10:35:22;4.10;99.90
32334;DHT22;18810;53.040;8.850;2023-01-28T10:40:16;4.40;99.90
32334;DHT22;18810;53.040;8.850;2023-01-28T10:45:46;4.40;99.90
32334;DHT22;18810;53.040;8.850;2023-01-28T10:50:51;4.50;99.90
32334;DHT22;18810;53.040;8.850;2023-01-28T10:53:17;4.70;99.90
32334;DHT22;18810;53.040;8.850;2023-01-28T10:58:23;5.60;99.90
32334;DHT22;18810;53.040;8.850;2023-01-28T11:00:56;5.70;99.90
32334;DHT22;18810;53.040;8.850;2023-01-28T11:03:25;6.20;99.90
32334;DHT22;18810;53.040;8.850;2023-01-28T11:05:55;6.70;99.90
32334;DHT22;18810;53.040;8.850;2023-01-28T11:08:24;6.70;99.90
32334;DHT22;18810;53.040;8.850;2023-01-28T11:10:51;7.40;99.90
32334;DHT22;18810;53.040;8.850;2023-01-28T11:13:30;7.40;99.90
32334;DHT22;18810;53.040;8.850;2023-01-28T11:16:05;7.00;99.90
32334;DHT22;18810;53.040;8.850;2023-01-28T11:18:50;6.80;99.90
32334;DHT22;18810;53.040;8.850;2023-01-28T11:21:25;5.80;99.90
32334;DHT22;18810;53.040;8.850;2023-01-28T11:24:04;5.80;99.90
32334;DHT22;18810;53.040;8.850;2023-01-28T11:26:34;5.80;99.90
32334;DHT22;18810;53.040;8.850;2023-01-28T11:31:27;5.60;99.90
32334;DHT22;18810;53.040;8.850;2023-01-28T11:33:56;5.20;99.90
32334;DHT22;18810;53.040;8.850;2023-01-28T11:36:27;5.50;99.90
32334;DHT22;18810;53.040;8.850;2023-01-28T11:41:30;5.80;99.90
32334;DHT22;18810;53.040;8.850;2023-01-28T11:43:58;5.10;99.90
32334;DHT22;18810;53.040;8.850;2023-01-28T12:23:10;6.30;99.90
32334;DHT22;18810;53.040;8.850;2023-01-28T12:26:58;5.80;99.90
32334;DHT22;18810;53.040;8.850;2023-01-28T12:42:17;6.30;99.90
32334;DHT22;18810;53.040;8.850;2023-01-28T12:44:52;6.30;99.90
32334;DHT22;18810;53.040;8.850;2023-01-28T12:47:21;6.60;99.90
32334;DHT22;18810;53.040;8.850;2023-01-28T12:49:55;6.60;99.90
32334;DHT22;18810;53.040;8.850;2023-01-28T12:52:35;6.30;99.90
32334;DHT22;18810;53.040;8.850;2023-01-28T12:57:43;5.20;99.90
32334;DHT22;18810;53.040;8.850;2023-01-28T13:03:40;6.00;99.90
32334;DHT22;18810;53.040;8.850;2023-01-28T13:05:55;7.70;99.90
32334;DHT22;18810;53.040;8.850;2023-01-28T13:08:26;8.10;99.90
32334;DHT22;18810;53.040;8.850;2023-01-28T13:10:52;8.00;99.90
32334;DHT22;18810;53.040;8.850;2023-01-28T13:13:33;7.20;99.90
32334;DHT22;18810;53.040;8.850;2023-01-28T13:16:00;7.20;99.90
32334;DHT22;18810;53.040;8.850;2023-01-28T13:21:06;6.20;99.90
32334;DHT22;18810;53.040;8.850;2023-01-28T13:23:44;6.40;99.90
32334;DHT22;18810;53.040;8.850;2023-01-28T13:29:18;6.80;99.90
32334;DHT22;18810;53.040;8.850;2023-01-28T13:31:47;7.70;99.90
32334;DHT22;18810;53.040;8.850;2023-01-28T13:34:36;8.30;99.90
32334;DHT22;18810;53.040;8.850;2023-01-28T13:40:16;8.00;99.90
32334;DHT22;18810;53.040;8.850;2023-01-28T13:43:03;7.20;99.90
32334;DHT22;18810;53.040;8.850;2023-01-28T13:45:30;7.00;99.90
32334;DHT22;18810;53.040;8.850;2023-01-28T13:48:30;7.30;99.90
32334;DHT22;18810;53.040;8.850;2023-01-28T13:50:57;7.40;99.90
32334;DHT22;18810;53.040;8.850;2023-01-28T13:53:55;7.40;99.90
32334;DHT22;18810;53.040;8.850;2023-01-28T13:56:27;7.60;99.90
32334;DHT22;18810;53.040;8.850;2023-01-28T14:17:59;6.40;99.90
32334;DHT22;18810;53.040;8.850;2023-01-28T14:23:12;6.20;99.90
32334;DHT22;18810;53.040;8.850;2023-01-28T14:28:40;6.40;99.90
32334;DHT22;18810;53.040;8.850;2023-01-28T14:31:15;6.30;99.90
32334;DHT22;18810;53.040;8.850;2023-01-28T14:33:42;6.30;99.90
32334;DHT22;18810;53.040;8.850;2023-01-28T14:36:12;6.50;99.90
32334;DHT22;18810;53.040;8.850;2023-01-28T14:38:41;6.40;99.90
32334;DHT22;18810;53.040;8.850;2023-01-28T14:41:08;6.40;99.90
32334;DHT22;18810;53.040;8.850;2023-01-28T14:43:41;6.80;99.90
32334;DHT22;18810;53.040;8.850;2023-01-28T14:57:20;5.30;99.90
32334;DHT22;18810;53.040;8.850;2023-01-28T14:59:55;5.40;99.90
32334;DHT22;18810;53.040;8.850;2023-01-28T15:02:28;5.40;99.90
32334;DHT22;18810;53.040;8.850;2023-01-28T15:04:54;5.50;99.90
32334;DHT22;18810;53.040;8.850;2023-01-28T15:07:31;6.80;99.90
32334;DHT22;18810;53.040;8.850;2023-01-28T15:12:59;5.00;99.90
32334;DHT22;18810;53.040;8.850;2023-01-28T15:15:36;5.00;99.90
32334;DHT22;18810;53.040;8.850;2023-01-28T15:18:18;4.90;99.90
32334;DHT22;18810;53.040;8.850;2023-01-28T15:20:50;4.80;99.90
32334;DHT22;18810;53.040;8.850;2023-01-28T15:23:16;4.70;99.90
32334;DHT22;18810;53.040;8.850;2023-01-28T15:25:43;5.10;99.90
32334;DHT22;18810;53.040;8.850;2023-01-28T15:28:19;5.40;99.90
32334;DHT22;18810;53.040;8.850;2023-01-28T15:30:47;4.80;99.90
32334;DHT22;18810;53.040;8.850;2023-01-28T15:33:14;4.90;99.90
32334;DHT22;18810;53.040;8.850;2023-01-28T15:35:52;5.90;99.90
32334;DHT22;18810;53.040;8.850;2023-01-28T15:40:56;4.90;99.90
32334;DHT22;18810;53.040;8.850;2023-01-28T15:43:26;4.80;99.90
32334;DHT22;18810;53.040;8.850;2023-01-28T15:45:54;4.90;99.90
32334;DHT22;18810;53.040;8.850;2023-01-28T15:48:22;4.80;99.90
32334;DHT22;18810;53.040;8.850;2023-01-28T15:50:57;4.80;99.90
32334;DHT22;18810;53.040;8.850;2023-01-28T15:58:29;4.60;99.90
32334;DHT22;18810;53.040;8.850;2023-01-28T16:03:35;4.50;99.90
32334;DHT22;18810;53.040;8.850;2023-01-28T16:06:16;4.30;99.90
32334;DHT22;18810;53.040;8.850;2023-01-28T16:08:58;5.40;99.90
32334;DHT22;18810;53.040;8.850;2023-01-28T16:11:30;4.40;99.90
32334;DHT22;18810;53.040;8.850;2023-01-28T16:13:57;4.20;99.90
32334;DHT22;18810;53.040;8.850;2023-01-28T16:16:32;4.40;99.90
32334;DHT22;18810;53.040;8.850;2023-01-28T16:18:59;3.80;99.90
32334;DHT22;18810;53.040;8.850;2023-01-28T16:21:29;3.90;99.90
32334;DHT22;18810;53.040;8.850;2023-01-28T16:24:22;5.10;99.90
32334;DHT22;18810;53.040;8.850;2023-01-28T16:27:06;4.10;99.90
32334;DHT22;18810;53.040;8.850;2023-01-28T16:29:42;3.80;99.90
32334;DHT22;18810;53.040;8.850;2023-01-28T16:32:30;3.90;99.90
32334;DHT22;18810;53.040;8.850;2023-01-28T16:34:58;3.90;99.90
32334;DHT22;18810;53.040;8.850;2023-01-28T16:37:24;5.50;99.90
32334;DHT22;18810;53.040;8.850;2023-01-28T16:42:16;4.20;99.90
32334;DHT22;18810;53.040;8.850;2023-01-28T16:44:42;5.30;99.90
32334;DHT22;18810;53.040;8.850;2023-01-28T16:47:08;4.80;99.90
32334;DHT22;18810;53.040;8.850;2023-01-28T16:49:34;3.90;99.90
32334;DHT22;18810;53.040;8.850;2023-01-28T16:52:00;3.60;99.90
32334;DHT22;18810;53.040;8.850;2023-01-28T16:54:27;3.60;99.90
32334;DHT22;18810;53.040;8.850;2023-01-28T16:56:53;3.60;99.90
32334;DHT22;18810;53.040;8.850;2023-01-28T16:59:20;3.50;99.90
32334;DHT22;18810;53.040;8.850;2023-01-28T17:04:12;3.50;99.90
32334;DHT22;18810;53.040;8.850;2023-01-28T17:06:39;3.50;99.90
32334;DHT22;18810;53.040;8.850;2023-01-28T17:11:33;3.50;99.90
32334;DHT22;18810;53.040;8.850;2023-01-28T17:14:00;3.70;99.90
32334;DHT22;18810;53.040;8.850;2023-01-28T17:16:26;4.50;99.90
32334;DHT22;18810;53.040;8.850;2023-01-28T17:26:13;3.60;99.90
32334;DHT22;18810;53.040;8.850;2023-01-28T17:28:39;4.40;99.90
32334;DHT22;18810;53.040;8.850;2023-01-28T17:31:10;4.50;99.90
32334;DHT22;18810;53.040;8.850;2023-01-28T17:33:40;3.50;99.90
32334;DHT22;18810;53.040;8.850;2023-01-28T17:36:06;3.50;99.90
32334;DHT22;18810;53.040;8.850;2023-01-28T17:41:05;3.50;99.90
32334;DHT22;18810;53.040;8.850;2023-01-28T17:43:31;3.60;99.90
32334;DHT22;18810;53.040;8.850;2023-01-28T17:50:55;3.40;99.90
32334;DHT22;18810;53.040;8.850;2023-01-28T18:20:07;3.50;99.90
32334;DHT22;18810;53.040;8.850;2023-01-28T18:32:17;3.40;99.90
32334;DHT22;18810;53.040;8.850;2023-01-28T18:42:02;3.40;99.90
32334;DHT22;18810;53.040;8.850;2023-01-28T18:44:30;3.60;99.90
32334;DHT22;18810;53.040;8.850;2023-01-28T18:54:14;3.60;99.90
32334;DHT22;18810;53.040;8.850;2023-01-28T18:59:09;3.50;99.90
32334;DHT22;18810;53.040;8.850;2023-01-28T19:06:28;3.40;99.90
32334;DHT22;18810;53.040;8.850;2023-01-28T19:08:56;4.20;99.90
32334;DHT22;18810;53.040;8.850;2023-01-28T19:11:24;3.40;99.90
32334;DHT22;18810;53.040;8.850;2023-01-28T19:26:02;3.50;99.90
32334;DHT22;18810;53.040;8.850;2023-01-28T19:28:32;3.50;99.90
32334;DHT22;18810;53.040;8.850;2023-01-28T19:31:00;4.40;99.90
32334;DHT22;18810;53.040;8.850;2023-01-28T19:35:59;3.30;99.90
32334;DHT22;18810;53.040;8.850;2023-01-28T19:38:26;3.90;99.90
32334;DHT22;18810;53.040;8.850;2023-01-28T19:46:02;3.30;99.90
32334;DHT22;18810;53.040;8.850;2023-01-28T19:48:29;5.70;99.90
32334;DHT22;18810;53.040;8.850;2023-01-28T20:00:39;3.30;99.90
32334;DHT22;18810;53.040;8.850;2023-01-28T20:05:36;3.40;99.90
32334;DHT22;18810;53.040;8.850;2023-01-28T20:08:02;3.40;99.90
32334;DHT22;18810;53.040;8.850;2023-01-28T20:10:30;3.30;99.90
32334;DHT22;18810;53.040;8.850;2023-01-28T20:12:55;5.80;99.90
32334;DHT22;18810;53.040;8.850;2023-01-28T20:15:21;4.90;99.90
32334;DHT22;18810;53.040;8.850;2023-01-28T20:22:39;3.40;99.90
32334;DHT22;18810;53.040;8.850;2023-01-28T20:25:06;3.30;99.90
32334;DHT22;18810;53.040;8.850;2023-01-28T20:27:32;3.40;99.90
32334;DHT22;18810;53.040;8.850;2023-01-28T20:32:24;3.30;99.90
32334;DHT22;18810;53.040;8.850;2023-01-28T20:42:09;3.50;99.90
32334;DHT22;18810;53.040;8.850;2023-01-28T20:47:04;3.40;99.90
32334;DHT22;18810;53.040;8.850;2023-01-28T20:49:29;3.40;99.90
32334;DHT22;18810;53.040;8.850;2023-01-28T20:56:50;3.30;99.90
32334;DHT22;18810;53.040;8.850;2023-01-28T21:09:02;3.30;99.90
32334;DHT22;18810;53.040;8.850;2023-01-28T21:13:55;3.30;99.90
32334;DHT22;18810;53.040;8.850;2023-01-28T21:21:25;3.30;99.90
32334;DHT22;18810;53.040;8.850;2023-01-28T21:23:51;3.30;99.90
32334;DHT22;18810;53.040;8.850;2023-01-28T21:26:21;4.90;99.90
32334;DHT22;18810;53.040;8.850;2023-01-28T21:28:46;3.40;99.90
32334;DHT22;18810;53.040;8.850;2023-01-28T21:31:18;3.50;99.90
32334;DHT22;18810;53.040;8.850;2023-01-28T21:33:48;3.80;99.90
32334;DHT22;18810;53.040;8.850;2023-01-28T21:36:14;4.10;99.90
32334;DHT22;18810;53.040;8.850;2023-01-28T21:38:40;4.20;99.90
32334;DHT22;18810;53.040;8.850;2023-01-28T21:41:08;3.30;99.90
32334;DHT22;18810;53.040;8.850;2023-01-28T21:43:37;3.30;99.90
32334;DHT22;18810;53.040;8.850;2023-01-28T21:46:03;3.20;99.90
32334;DHT22;18810;53.040;8.850;2023-01-28T21:48:29;3.20;99.90
32334;DHT22;18810;53.040;8.850;2023-01-28T21:50:55;3.40;99.90
32334;DHT22;18810;53.040;8.850;2023-01-28T21:53:40;4.80;99.90
32334;DHT22;18810;53.040;8.850;2023-01-28T21:56:07;3.40;99.90
32334;DHT22;18810;53.040;8.850;2023-01-28T21:58:37;4.00;99.90
32334;DHT22;18810;53.040;8.850;2023-01-28T22:01:21;3.70;99.90
32334;DHT22;18810;53.040;8.850;2023-01-28T22:03:48;4.70;99.90
32334;DHT22;18810;53.040;8.850;2023-01-28T22:06:14;3.90;99.90
32334;DHT22;18810;53.040;8.850;2023-01-28T22:11:07;3.50;99.90
32334;DHT22;18810;53.040;8.850;2023-01-28T22:13:33;3.40;99.90
32334;DHT22;18810;53.040;8.850;2023-01-28T22:15:59;4.50;99.90
32334;DHT22;18810;53.040;8.850;2023-01-28T22:18:26;3.40;99.90
32334;DHT22;18810;53.040;8.850;2023-01-28T22:21:03;3.40;99.90
32334;DHT22;18810;53.040;8.850;2023-01-28T22:23:29;3.40;99.90
32334;DHT22;18810;53.040;8.850;2023-01-28T22:25:56;3.30;99.90
32334;DHT22;18810;53.040;8.850;2023-01-28T22:28:23;4.80;99.90
32334;DHT22;18810;53.040;8.850;2023-01-28T22:30:53;3.30;99.90
32334;DHT22;18810;53.040;8.850;2023-01-28T22:33:19;3.10;99.90
32334;DHT22;18810;53.040;8.850;2023-01-28T22:35:46;3.10;99.90
32334;DHT22;18810;53.040;8.850;2023-01-28T22:38:12;5.40;99.90
32334;DHT22;18810;53.040;8.850;2023-01-28T22:40:38;4.00;99.90
32334;DHT22;18810;53.040;8.850;2023-01-28T22:43:04;3.90;99.90
32334;DHT22;18810;53.040;8.850;2023-01-28T22:45:30;4.90;99.90
32334;DHT22;18810;53.040;8.850;2023-01-28T22:47:56;3.10;99.90
32334;DHT22;18810;53.040;8.850;2023-01-28T22:50:21;3.10;99.90
32334;DHT22;18810;53.040;8.850;2023-01-28T22:52:47;4.70;99.90
32334;DHT22;18810;53.040;8.850;2023-01-28T22:55:12;4.00;99.90
32334;DHT22;18810;53.040;8.850;2023-01-28T22:57:38;3.20;99.90
32334;DHT22;18810;53.040;8.850;2023-01-28T23:00:10;3.20;99.90
32334;DHT22;18810;53.040;8.850;2023-01-28T23:02:37;3.20;99.90
32334;DHT22;18810;53.040;8.850;2023-01-28T23:05:04;3.20;99.90
32334;DHT22;18810;53.040;8.850;2023-01-28T23:07:30;3.10;99.90
32334;DHT22;18810;53.040;8.850;2023-01-28T23:09:55;3.40;99.90
32334;DHT22;18810;53.040;8.850;2023-01-28T23:12:21;3.10;99.90
32334;DHT22;18810;53.040;8.850;2023-01-28T23:14:47;3.10;99.90
32334;DHT22;18810;53.040;8.850;2023-01-28T23:17:31;3.00;99.90
32334;DHT22;18810;53.040;8.850;2023-01-28T23:20:15;4.10;99.90
32334;DHT22;18810;53.040;8.850;2023-01-28T23:22:59;3.00;99.90
32334;DHT22;18810;53.040;8.850;2023-01-28T23:25:43;3.10;99.90
32334;DHT22;18810;53.040;8.850;2023-01-28T23:28:08;3.10;99.90
32334;DHT22;18810;53.040;8.850;2023-01-28T23:30:34;3.30;99.90
32334;DHT22;18810;53.040;8.850;2023-01-28T23:33:01;2.90;99.90
32334;DHT22;18810;53.040;8.850;2023-01-28T23:35:27;2.80;99.90
32334;DHT22;18810;53.040;8.850;2023-01-28T23:37:53;3.10;99.90
32334;DHT22;18810;53.040;8.850;2023-01-28T23:40:19;3.90;99.90
32334;DHT22;18810;53.040;8.850;2023-01-28T23:42:49;2.70;99.90
32334;DHT22;18810;53.040;8.850;2023-01-28T23:45:16;2.70;99.90
32334;DHT22;18810;53.040;8.850;2023-01-28T23:47:41;2.60;99.90
32334;DHT22;18810;53.040;8.850;2023-01-28T23:50:08;2.60;99.90
32334;DHT22;18810;53.040;8.850;2023-01-28T23:52:34;2.40;99.90
32334;DHT22;18810;53.040;8.850;2023-01-28T23:55:00;2.50;99.90
32334;DHT22;18810;53.040;8.850;2023-01-28T23:57:25;4.80;99.90
32334;DHT22;18810;53.040;8.850;2023-01-28T23:59:51;2.40;99.90
